createdAt,value
2022-11-23T00:00:04.217Z,88.04
2022-11-23T00:03:06.644Z,88.11
2022-11-23T00:06:08.499Z,87.85
2022-11-23T00:09:11.335Z,87.77
2022-11-23T00:12:13.163Z,87.28
2022-11-23T00:15:15.431Z,87.37
2022-11-23T00:18:17.261Z,87.04
2022-11-23T00:21:19.529Z,86.85
2022-11-23T00:24:21.333Z,86.85
2022-11-23T00:27:23.144Z,86.99
2022-11-23T00:30:24.945Z,86.83
2022-11-23T00:33:27.569Z,86.80
2022-11-23T00:36:29.456Z,86.76
2022-11-23T00:39:34.195Z,86.63
2022-11-23T00:42:38.289Z,86.79
2022-11-23T00:45:40.342Z,86.65
2022-11-23T00:48:48.506Z,86.35
2022-11-23T00:51:50.385Z,86.79
2022-11-23T00:54:53.139Z,86.51
2022-11-23T00:57:55.050Z,86.22
2022-11-23T01:01:06.743Z,86.46
2022-11-23T01:04:10.039Z,86.23
2022-11-23T01:07:11.847Z,86.51
2022-11-23T01:10:15.072Z,86.49
2022-11-23T01:13:16.869Z,86.73
2022-11-23T01:16:24.799Z,86.84
2022-11-23T01:19:26.769Z,86.97
2022-11-23T01:22:28.495Z,87.12
2022-11-23T01:25:30.309Z,87.04
2022-11-23T01:28:33.983Z,87.15
2022-11-23T01:31:35.819Z,87.38
2022-11-23T01:34:37.734Z,87.44
2022-11-23T01:37:39.673Z,87.54
2022-11-23T01:40:44.576Z,87.44
2022-11-23T01:43:46.800Z,87.51
2022-11-23T01:46:48.580Z,87.46
2022-11-23T01:49:52.782Z,87.69
2022-11-23T01:52:55.046Z,87.50
2022-11-23T01:56:00.974Z,87.45
2022-11-23T01:59:07.965Z,87.56
2022-11-23T02:02:09.953Z,87.96
2022-11-23T02:05:11.871Z,88.05
2022-11-23T02:08:16.907Z,88.11
2022-11-23T02:11:19.849Z,88.08
2022-11-23T02:14:23.668Z,88.40
2022-11-23T02:17:29.382Z,88.26
2022-11-23T02:20:31.974Z,88.28
2022-11-23T02:23:59.990Z,88.16
2022-11-23T02:27:03.502Z,88.40
2022-11-23T02:30:05.777Z,88.36
2022-11-23T02:33:07.741Z,88.03
2022-11-23T02:36:46.570Z,87.78
2022-11-23T02:39:53.710Z,88.03
2022-11-23T02:42:55.795Z,88.02
2022-11-23T02:46:01.204Z,87.82
2022-11-23T02:49:03.039Z,88.40
2022-11-23T02:52:05.140Z,87.80
2022-11-23T02:55:07.253Z,87.96
2022-11-23T02:58:09.467Z,87.82
2022-11-23T03:01:11.290Z,88.38
2022-11-23T03:04:13.462Z,88.27
2022-11-23T03:07:15.332Z,87.96
2022-11-23T03:10:18.524Z,88.27
2022-11-23T03:13:22.085Z,87.78
2022-11-23T03:16:24.290Z,87.88
2022-11-23T03:19:26.160Z,87.57
2022-11-23T03:22:28.862Z,88.00
2022-11-23T03:25:31.324Z,87.86
2022-11-23T03:28:33.866Z,87.77
2022-11-23T03:31:35.946Z,87.83
2022-11-23T03:34:40.160Z,88.06
2022-11-23T03:37:42.850Z,87.81
2022-11-23T03:40:46.051Z,88.17
2022-11-23T03:43:54.806Z,87.84
2022-11-23T03:46:57.540Z,87.54
2022-11-23T03:50:01.154Z,87.55
2022-11-23T03:53:06.264Z,87.58
2022-11-23T03:56:08.788Z,87.36
2022-11-23T03:59:16.075Z,87.13
2022-11-23T04:02:17.963Z,87.34
2022-11-23T04:05:32.803Z,86.89
2022-11-23T04:09:00.380Z,86.73
2022-11-23T04:12:20.869Z,86.96
2022-11-23T04:15:22.598Z,86.92
2022-11-23T04:18:24.817Z,86.68
2022-11-23T04:21:27.537Z,86.63
2022-11-23T04:24:29.436Z,86.60
2022-11-23T04:27:34.248Z,86.67
2022-11-23T04:30:36.077Z,86.72
2022-11-23T04:33:37.940Z,86.57
2022-11-23T04:36:40.216Z,86.42
2022-11-23T04:39:43.579Z,86.42
2022-11-23T04:43:00.217Z,86.27
2022-11-23T04:46:04.775Z,86.40
2022-11-23T04:49:09.228Z,86.62
2022-11-23T04:52:12.550Z,86.29
2022-11-23T04:55:20.364Z,85.91
2022-11-23T04:58:34.490Z,86.19
2022-11-23T05:01:37.195Z,86.22
2022-11-23T05:05:14.184Z,86.48
2022-11-23T05:08:17.443Z,86.37
2022-11-23T05:11:42.452Z,87.20
2022-11-23T05:14:45.784Z,86.89
2022-11-23T05:17:57.737Z,87.27
2022-11-23T05:21:01.187Z,87.40
2022-11-23T05:24:04.232Z,87.77
2022-11-23T05:27:06.431Z,87.63
2022-11-23T05:30:09.057Z,87.45
2022-11-23T05:33:12.476Z,87.48
2022-11-23T05:36:15.189Z,87.20
2022-11-23T05:39:17.497Z,87.50
2022-11-23T05:42:21.067Z,87.44
2022-11-23T05:45:24.290Z,87.36
2022-11-23T05:48:28.931Z,87.56
2022-11-23T05:51:32.872Z,86.84
2022-11-23T05:54:35.472Z,87.03
2022-11-23T05:57:42.799Z,87.63
2022-11-23T06:00:46.229Z,87.24
2022-11-23T06:03:52.284Z,87.46
2022-11-23T06:07:00.980Z,87.29
2022-11-23T06:10:09.833Z,87.39
2022-11-23T06:13:15.266Z,87.37
2022-11-23T06:16:19.543Z,87.60
2022-11-23T06:19:34.148Z,87.70
2022-11-23T06:22:37.097Z,87.47
2022-11-23T06:25:41.341Z,87.15
2022-11-23T06:29:11.975Z,86.85
2022-11-23T06:32:15.210Z,87.06
2022-11-23T06:35:17.957Z,87.15
2022-11-23T06:38:20.411Z,87.46
2022-11-23T06:41:30.941Z,87.34
2022-11-23T06:44:34.454Z,87.82
2022-11-23T06:47:36.421Z,87.54
2022-11-23T06:50:39.118Z,87.57
2022-11-23T06:53:41.585Z,88.00
2022-11-23T06:56:44.752Z,87.72
2022-11-23T06:59:47.011Z,87.64
2022-11-23T07:02:55.046Z,87.27
2022-11-23T07:05:59.170Z,87.42
2022-11-23T07:09:03.775Z,87.34
2022-11-23T07:12:29.792Z,87.28
2022-11-23T07:15:36.263Z,87.08
2022-11-23T07:18:38.155Z,86.99
2022-11-23T07:21:41.342Z,87.02
2022-11-23T07:24:46.707Z,87.16
2022-11-23T07:27:55.329Z,86.85
2022-11-23T07:30:57.861Z,86.92
2022-11-23T07:33:59.709Z,87.05
2022-11-23T07:37:03.292Z,87.11
2022-11-23T07:40:08.509Z,86.93
2022-11-23T07:43:11.178Z,86.76
2022-11-23T07:46:13.046Z,86.79
2022-11-23T07:49:14.815Z,86.54
2022-11-23T07:52:16.707Z,86.86
2022-11-23T07:55:18.609Z,86.61
2022-11-23T07:58:20.430Z,86.66
2022-11-23T08:01:22.302Z,86.56
2022-11-23T08:04:24.360Z,86.38
2022-11-23T08:07:26.148Z,86.21
2022-11-23T08:10:29.302Z,86.24
2022-11-23T08:13:32.199Z,86.06
2022-11-23T08:16:34.065Z,85.84
2022-11-23T08:19:36.101Z,85.67
2022-11-23T08:22:37.846Z,85.54
2022-11-23T08:25:39.707Z,86.04
2022-11-23T08:28:41.489Z,86.11
2022-11-23T08:31:43.901Z,85.64
2022-11-23T08:34:45.732Z,85.84
2022-11-23T08:37:47.589Z,85.68
2022-11-23T08:40:49.583Z,85.90
2022-11-23T08:43:51.696Z,85.98
2022-11-23T08:46:54.345Z,85.93
2022-11-23T08:49:56.143Z,86.01
2022-11-23T08:52:59.810Z,85.73
2022-11-23T08:56:02.893Z,85.81
2022-11-23T08:59:04.650Z,86.10
2022-11-23T09:02:06.575Z,85.90
2022-11-23T09:05:09.478Z,86.08
2022-11-23T09:08:11.305Z,86.42
2022-11-23T09:11:14.336Z,86.28
2022-11-23T09:14:16.059Z,86.68
2022-11-23T09:17:17.903Z,86.74
2022-11-23T09:20:19.685Z,87.12
2022-11-23T09:23:21.602Z,86.80
2022-11-23T09:26:23.478Z,86.68
2022-11-23T09:29:25.630Z,86.65
2022-11-23T09:32:27.825Z,86.11
2022-11-23T09:35:29.917Z,86.26
2022-11-23T09:38:55.722Z,86.08
2022-11-23T09:42:15.541Z,85.99
2022-11-23T09:45:30.547Z,86.08
2022-11-23T09:48:45.241Z,85.91
2022-11-23T09:51:48.195Z,85.61
2022-11-23T09:54:52.457Z,85.55
2022-11-23T09:57:59.865Z,85.78
2022-11-23T10:01:16.144Z,86.75
2022-11-23T10:04:20.290Z,86.77
2022-11-23T10:07:25.143Z,86.65
2022-11-23T10:10:41.558Z,86.68
2022-11-23T10:14:02.312Z,86.99
2022-11-23T10:17:22.263Z,86.40
2022-11-23T10:20:26.818Z,86.61
2022-11-23T10:24:01.052Z,86.64
2022-11-23T10:27:04.122Z,86.64
2022-11-23T10:30:12.910Z,86.52
2022-11-23T10:33:30.887Z,86.37
2022-11-23T10:36:36.067Z,86.14
2022-11-23T10:39:38.221Z,86.23
2022-11-23T10:42:47.526Z,86.16
2022-11-23T10:45:49.289Z,86.19
2022-11-23T10:48:52.788Z,86.46
2022-11-23T10:51:56.257Z,86.10
2022-11-23T10:55:00.319Z,86.19
2022-11-23T10:58:02.221Z,86.22
2022-11-23T11:01:24.979Z,86.44
2022-11-23T11:04:29.181Z,86.07
2022-11-23T11:07:31.600Z,86.05
2022-11-23T11:10:40.622Z,86.61
2022-11-23T11:13:47.844Z,86.00
2022-11-23T11:16:56.775Z,85.96
2022-11-23T11:19:59.604Z,85.87
2022-11-23T11:23:17.582Z,85.65
2022-11-23T11:26:22.876Z,86.25
2022-11-23T11:29:40.016Z,86.20
2022-11-23T11:32:54.097Z,85.82
2022-11-23T11:35:56.930Z,85.88
2022-11-23T11:39:17.551Z,86.08
2022-11-23T11:42:33.607Z,85.52
2022-11-23T11:45:54.495Z,85.67
2022-11-23T11:49:11.169Z,85.84
2022-11-23T11:52:22.274Z,85.83
2022-11-23T11:55:39.487Z,85.73
2022-11-23T11:58:50.926Z,85.73
2022-11-23T12:02:14.537Z,85.73
2022-11-23T12:05:27.379Z,85.54
2022-11-23T12:09:12.852Z,85.42
2022-11-23T12:12:18.154Z,85.70
2022-11-23T12:15:48.230Z,85.78
2022-11-23T12:19:01.210Z,85.52
2022-11-23T12:22:21.130Z,85.62
